Terminal Aerodrome Forecast
Issued by NWS

Home | Current Version | Previous Version | Text Only | Print | Product List | Glossary On
Versions: 1 2 3 4 5 6 7 8 9 10 11 12 13 14 15 16 17 18 19 20 21
933
FTUS41 KCLE 180540
TAFFDY
TAF
KFDY 180540Z 1806/1906 25012KT P6SM OVC007
     FM181600 26010KT P6SM OVC015
     FM190200 23006KT P6SM OVC015=

USA.gov is the U.S. government's official web portal to all federal, state and local government web resources and services.